createdAt,value
2024-01-10T00:00:44.484Z,16.14
2024-01-10T00:03:11.612Z,16.18
2024-01-10T00:05:38.690Z,16.00
2024-01-10T00:08:07.731Z,15.62
2024-01-10T00:10:34.767Z,16.27
2024-01-10T00:13:01.906Z,15.95
2024-01-10T00:15:29.011Z,15.83
2024-01-10T00:17:56.115Z,16.72
2024-01-10T00:20:23.309Z,16.57
2024-01-10T00:22:50.797Z,16.54
2024-01-10T00:25:17.988Z,16.54
2024-01-10T00:27:44.978Z,16.19
2024-01-10T00:30:12.290Z,15.76
2024-01-10T00:32:39.442Z,16.43
2024-01-10T00:35:06.695Z,15.59
2024-01-10T00:37:33.955Z,16.25
2024-01-10T00:40:00.984Z,17.04
2024-01-10T00:42:28.090Z,17.00
2024-01-10T00:44:55.423Z,16.69
2024-01-10T00:47:22.552Z,17.01
2024-01-10T00:49:49.725Z,16.44
2024-01-10T00:52:16.847Z,16.26
2024-01-10T00:54:45.555Z,16.28
2024-01-10T00:57:12.632Z,15.99
2024-01-10T00:59:40.414Z,16.03
2024-01-10T01:02:07.617Z,16.64
2024-01-10T01:04:34.752Z,16.67
2024-01-10T01:07:01.786Z,15.55
2024-01-10T01:09:28.768Z,16.16
2024-01-10T01:11:55.946Z,16.89
2024-01-10T01:14:23.196Z,16.25
2024-01-10T01:16:50.281Z,15.31
2024-01-10T01:19:17.455Z,15.91
2024-01-10T01:21:44.996Z,16.02
2024-01-10T01:24:12.696Z,15.62
2024-01-10T01:26:39.780Z,14.54
2024-01-10T01:29:07.235Z,14.54
2024-01-10T01:31:34.375Z,14.58
2024-01-10T01:34:01.601Z,18.59
2024-01-10T01:36:28.721Z,14.42
2024-01-10T01:38:55.841Z,14.26
2024-01-10T01:41:23.006Z,14.54
2024-01-10T01:43:50.341Z,14.72
2024-01-10T01:46:17.707Z,14.24
2024-01-10T01:48:45.667Z,14.15
2024-01-10T01:51:16.496Z,13.91
2024-01-10T01:53:47.001Z,14.49
2024-01-10T01:56:16.329Z,13.42
2024-01-10T01:58:46.557Z,14.03
2024-01-10T02:01:14.268Z,14.55
2024-01-10T02:03:41.689Z,14.28
2024-01-10T02:06:09.020Z,14.48
2024-01-10T02:08:37.542Z,13.99
2024-01-10T02:11:06.674Z,14.52
2024-01-10T02:13:34.835Z,14.32
2024-01-10T02:16:04.982Z,15.06
2024-01-10T02:18:32.882Z,14.52
2024-01-10T02:21:00.055Z,14.87
2024-01-10T02:23:27.182Z,14.70
2024-01-10T02:25:54.491Z,14.83
2024-01-10T02:28:21.639Z,14.09
2024-01-10T02:30:48.926Z,14.45
2024-01-10T02:33:16.102Z,14.18
2024-01-10T02:35:43.232Z,14.50
2024-01-10T02:38:10.367Z,14.21
2024-01-10T02:40:37.661Z,14.28
2024-01-10T02:43:05.044Z,14.29
2024-01-10T02:45:32.136Z,14.18
2024-01-10T02:47:59.306Z,13.83
2024-01-10T02:50:26.427Z,13.74
2024-01-10T02:52:53.548Z,14.13
2024-01-10T02:55:20.666Z,13.89
2024-01-10T02:57:47.770Z,14.65
2024-01-10T03:00:15.513Z,14.10
2024-01-10T03:02:42.613Z,13.91
2024-01-10T03:05:09.914Z,14.49
2024-01-10T03:07:37.106Z,14.44
2024-01-10T03:10:05.444Z,14.31
2024-01-10T03:12:32.484Z,14.42
2024-01-10T03:15:00.379Z,14.38
2024-01-10T03:17:27.495Z,15.30
2024-01-10T03:19:54.579Z,14.74
2024-01-10T03:22:21.655Z,14.83
2024-01-10T03:24:49.237Z,15.39
2024-01-10T03:27:16.287Z,14.97
2024-01-10T03:29:43.299Z,14.83
2024-01-10T03:32:10.496Z,14.75
2024-01-10T03:34:37.615Z,14.50
2024-01-10T03:37:05.085Z,15.08
2024-01-10T03:39:32.197Z,14.99
2024-01-10T03:41:59.223Z,15.69
2024-01-10T03:44:28.678Z,15.78
2024-01-10T03:46:56.172Z,14.87
2024-01-10T03:49:24.200Z,15.08
2024-01-10T03:51:51.323Z,15.50
2024-01-10T03:54:18.377Z,15.07
2024-01-10T03:56:45.477Z,15.15
2024-01-10T03:59:12.563Z,14.51
2024-01-10T04:01:40.839Z,15.22
2024-01-10T04:04:07.903Z,15.54
2024-01-10T04:06:36.170Z,15.58
2024-01-10T04:09:04.197Z,15.49
2024-01-10T04:11:31.282Z,14.91
2024-01-10T04:13:58.599Z,15.82
2024-01-10T04:16:27.357Z,16.20
2024-01-10T04:18:54.399Z,16.01
2024-01-10T04:21:22.904Z,15.63
2024-01-10T04:23:49.973Z,15.78
2024-01-10T04:26:17.163Z,16.19
2024-01-10T04:28:44.353Z,15.31
2024-01-10T04:31:11.557Z,16.14
2024-01-10T04:33:38.658Z,16.51
2024-01-10T04:36:06.083Z,16.94
2024-01-10T04:38:33.380Z,16.69
2024-01-10T04:41:00.553Z,17.27
2024-01-10T04:43:27.670Z,17.41
2024-01-10T04:45:54.769Z,17.47
2024-01-10T04:48:21.927Z,17.20
2024-01-10T04:50:49.195Z,17.15
2024-01-10T04:53:16.322Z,17.86
2024-01-10T04:55:43.468Z,17.52
2024-01-10T04:58:10.547Z,17.80
2024-01-10T05:00:38.010Z,17.43
2024-01-10T05:03:05.415Z,18.12
2024-01-10T05:05:32.630Z,17.66
2024-01-10T05:07:59.786Z,17.77
2024-01-10T05:10:26.882Z,17.84
2024-01-10T05:12:53.930Z,18.49
2024-01-10T05:15:21.117Z,17.47
2024-01-10T05:17:48.288Z,17.70
2024-01-10T05:20:15.439Z,17.80
2024-01-10T05:22:44.729Z,17.93
2024-01-10T05:25:11.808Z,17.39
2024-01-10T05:27:38.871Z,17.31
2024-01-10T05:30:07.059Z,17.75
2024-01-10T05:32:34.163Z,17.78
2024-01-10T05:35:01.907Z,17.60
2024-01-10T05:37:29.049Z,17.49
2024-01-10T05:39:56.126Z,17.72
2024-01-10T05:42:23.184Z,17.62
2024-01-10T05:44:50.215Z,18.22
2024-01-10T05:47:17.305Z,18.12
2024-01-10T05:49:44.453Z,17.82
2024-01-10T05:52:11.791Z,17.88
2024-01-10T05:54:39.968Z,17.87
2024-01-10T05:57:07.326Z,18.33
2024-01-10T05:59:34.367Z,19.33
2024-01-10T06:02:01.426Z,18.40
2024-01-10T06:04:29.459Z,18.25
2024-01-10T06:06:56.540Z,18.11
2024-01-10T06:09:23.616Z,17.56
2024-01-10T06:11:51.188Z,17.89
2024-01-10T06:14:18.902Z,17.59
2024-01-10T06:16:46.806Z,18.06
2024-01-10T06:19:13.999Z,17.89
2024-01-10T06:21:41.159Z,17.88
2024-01-10T06:24:09.578Z,17.28
2024-01-10T06:26:36.783Z,17.20
2024-01-10T06:29:03.935Z,18.06
2024-01-10T06:31:31.068Z,17.63
2024-01-10T06:33:58.180Z,17.05
2024-01-10T06:36:25.584Z,17.00
2024-01-10T06:38:52.750Z,17.54
2024-01-10T06:41:25.802Z,17.90
2024-01-10T06:43:54.324Z,18.73
2024-01-10T06:46:22.688Z,18.22
2024-01-10T06:48:49.904Z,18.34
2024-01-10T06:51:18.078Z,18.74
2024-01-10T06:53:45.087Z,19.18
2024-01-10T06:56:12.628Z,18.97
2024-01-10T06:58:40.859Z,18.84
2024-01-10T07:01:15.290Z,18.66
2024-01-10T07:03:42.911Z,18.80
2024-01-10T07:06:10.263Z,18.71
2024-01-10T07:08:37.761Z,19.33
2024-01-10T07:11:05.111Z,19.62
2024-01-10T07:13:33.032Z,19.76
2024-01-10T07:16:03.489Z,19.56
2024-01-10T07:18:31.214Z,19.65
2024-01-10T07:20:58.471Z,19.38
2024-01-10T07:23:25.726Z,19.62
2024-01-10T07:25:53.928Z,20.04
2024-01-10T07:28:21.902Z,19.34
2024-01-10T07:30:50.146Z,25.41
2024-01-10T07:33:17.392Z,27.70
2024-01-10T07:35:44.970Z,19.62
2024-01-10T07:38:12.167Z,18.62
2024-01-10T07:40:39.270Z,18.44
2024-01-10T07:43:06.341Z,17.59
2024-01-10T07:45:34.937Z,18.16
2024-01-10T07:48:02.270Z,18.10
2024-01-10T07:50:30.269Z,17.87
2024-01-10T07:52:58.067Z,17.94
2024-01-10T07:55:25.161Z,18.12
2024-01-10T07:57:53.317Z,18.65
2024-01-10T08:00:21.975Z,18.62
2024-01-10T08:02:50.218Z,18.56
2024-01-10T08:05:17.543Z,18.44
2024-01-10T08:07:44.800Z,18.63
2024-01-10T08:10:12.102Z,18.17
2024-01-10T08:12:45.843Z,18.30
2024-01-10T08:15:12.939Z,18.36
2024-01-10T08:17:40.130Z,18.71
2024-01-10T08:20:10.265Z,18.41
2024-01-10T08:22:37.503Z,18.82
2024-01-10T08:25:06.021Z,18.26
2024-01-10T08:27:33.142Z,18.89
2024-01-10T08:30:00.675Z,19.10
2024-01-10T08:32:27.875Z,18.93
2024-01-10T08:34:54.946Z,19.25
2024-01-10T08:37:22.191Z,19.22
2024-01-10T08:39:49.347Z,19.16
2024-01-10T08:42:16.581Z,19.20
2024-01-10T08:44:44.849Z,19.28
2024-01-10T08:47:12.052Z,19.60
2024-01-10T08:49:39.749Z,19.16
2024-01-10T08:52:07.175Z,19.41
2024-01-10T08:54:35.254Z,19.28
2024-01-10T08:57:02.309Z,19.39
2024-01-10T08:59:29.767Z,19.53
2024-01-10T09:01:57.375Z,18.92
2024-01-10T09:04:24.438Z,19.55
2024-01-10T09:06:51.831Z,19.26
2024-01-10T09:09:22.431Z,19.28
2024-01-10T09:11:50.056Z,19.02
2024-01-10T09:14:17.236Z,19.03
2024-01-10T09:16:44.715Z,19.45
2024-01-10T09:19:12.370Z,18.83
2024-01-10T09:21:41.709Z,19.33
2024-01-10T09:24:21.728Z,19.01
2024-01-10T09:26:56.217Z,18.72
2024-01-10T09:29:25.702Z,19.12
2024-01-10T09:31:53.044Z,19.60
2024-01-10T09:34:21.646Z,19.41
2024-01-10T09:36:49.453Z,19.45
2024-01-10T09:39:18.292Z,19.17
2024-01-10T09:41:51.746Z,19.53
2024-01-10T09:44:20.309Z,19.74
2024-01-10T09:46:54.471Z,19.85
2024-01-10T09:49:23.915Z,19.36
2024-01-10T09:51:54.907Z,20.73
2024-01-10T09:54:27.416Z,21.55
2024-01-10T09:56:54.999Z,22.60
2024-01-10T09:59:22.319Z,19.55
2024-01-10T10:01:49.879Z,19.25
2024-01-10T10:04:20.368Z,18.70
2024-01-10T10:06:47.836Z,18.29
2024-01-10T10:09:17.389Z,17.45
2024-01-10T10:11:44.787Z,18.36
2024-01-10T10:14:20.390Z,18.67
2024-01-10T10:16:47.775Z,18.08
2024-01-10T10:19:34.219Z,17.93
2024-01-10T10:22:12.082Z,18.29
2024-01-10T10:24:41.039Z,18.75
2024-01-10T10:27:12.972Z,18.08
2024-01-10T10:29:41.050Z,18.98
2024-01-10T10:32:10.296Z,19.13
2024-01-10T10:34:37.604Z,18.78
2024-01-10T10:37:06.436Z,18.53
2024-01-10T10:39:33.664Z,18.70
2024-01-10T10:42:02.734Z,19.06
2024-01-10T10:44:37.463Z,19.04
2024-01-10T10:47:13.685Z,19.62
2024-01-10T10:49:56.525Z,19.90
2024-01-10T10:52:26.283Z,19.85
2024-01-10T10:54:58.581Z,19.27
2024-01-10T10:57:29.129Z,19.58
2024-01-10T10:59:58.875Z,19.77
2024-01-10T11:02:30.203Z,19.21
2024-01-10T11:05:02.838Z,19.30
2024-01-10T11:07:30.172Z,19.34
2024-01-10T11:10:02.235Z,19.23
2024-01-10T11:13:11.942Z,18.68
2024-01-10T11:16:17.967Z,18.83
2024-01-10T11:19:12.107Z,19.68
2024-01-10T11:21:50.930Z,19.12
2024-01-10T11:24:21.174Z,19.21
2024-01-10T11:26:48.422Z,18.95
2024-01-10T11:29:17.259Z,19.50
2024-01-10T11:31:54.079Z,19.24
2024-01-10T11:34:28.343Z,19.09
2024-01-10T11:37:14.252Z,21.74
2024-01-10T11:39:45.360Z,19.00
2024-01-10T11:42:13.657Z,19.60
2024-01-10T11:44:52.258Z,20.22
2024-01-10T11:47:21.548Z,19.80
2024-01-10T11:50:00.535Z,19.72
2024-01-10T11:52:35.978Z,20.39
2024-01-10T11:55:04.470Z,21.32
2024-01-10T11:57:33.769Z,20.27
2024-01-10T12:00:02.214Z,18.93
2024-01-10T12:02:32.091Z,17.69
2024-01-10T12:05:00.208Z,18.52
2024-01-10T12:07:27.564Z,20.09
2024-01-10T12:09:56.430Z,19.60
2024-01-10T12:12:23.756Z,18.38
2024-01-10T12:14:53.192Z,17.46
2024-01-10T12:17:20.972Z,18.26
2024-01-10T12:19:49.860Z,17.84
2024-01-10T12:22:20.128Z,17.59
2024-01-10T12:24:52.024Z,17.40
2024-01-10T12:27:23.023Z,17.50
2024-01-10T12:29:54.135Z,17.79
2024-01-10T12:32:25.510Z,17.24
2024-01-10T12:35:03.345Z,17.67
2024-01-10T12:37:30.739Z,17.14
2024-01-10T12:39:58.675Z,17.35
2024-01-10T12:42:26.064Z,17.40
2024-01-10T12:44:53.146Z,17.22
2024-01-10T12:47:22.827Z,17.52
2024-01-10T12:49:51.247Z,17.15
2024-01-10T12:52:22.654Z,17.48
2024-01-10T12:54:50.556Z,16.86
2024-01-10T12:57:17.977Z,16.08
2024-01-10T12:59:46.762Z,16.67
2024-01-10T13:02:13.924Z,16.71
2024-01-10T13:04:41.210Z,17.02
2024-01-10T13:07:08.393Z,16.63
2024-01-10T13:09:36.752Z,17.85
2024-01-10T13:12:05.728Z,17.61
2024-01-10T13:14:33.485Z,17.00
2024-01-10T13:17:01.232Z,16.64
2024-01-10T13:19:28.780Z,17.13
2024-01-10T13:21:56.826Z,17.06
2024-01-10T13:24:24.019Z,16.40
2024-01-10T13:26:51.235Z,16.50
2024-01-10T13:29:18.427Z,16.23
2024-01-10T13:31:45.882Z,15.89
2024-01-10T13:34:13.217Z,16.20
2024-01-10T13:36:40.885Z,16.59
2024-01-10T13:39:08.780Z,16.25
2024-01-10T13:41:36.527Z,16.39
2024-01-10T13:44:05.257Z,16.40
2024-01-10T13:46:33.361Z,15.88
2024-01-10T13:49:03.411Z,16.16
2024-01-10T13:51:31.479Z,16.71
2024-01-10T13:53:58.709Z,17.04
2024-01-10T13:56:26.074Z,17.76
2024-01-10T13:58:53.140Z,17.99
2024-01-10T14:01:20.312Z,18.67
2024-01-10T14:03:47.640Z,17.55
2024-01-10T14:06:14.967Z,17.16
2024-01-10T14:08:45.045Z,17.45
2024-01-10T14:11:12.227Z,17.14
2024-01-10T14:13:39.331Z,18.40
2024-01-10T14:16:06.561Z,18.42
2024-01-10T14:18:34.297Z,16.87
2024-01-10T14:21:01.618Z,17.49
2024-01-10T14:23:28.711Z,17.54
2024-01-10T14:25:55.933Z,16.64
2024-01-10T14:28:23.895Z,17.46
2024-01-10T14:30:52.108Z,17.09
2024-01-10T14:33:21.583Z,17.31
2024-01-10T14:35:48.966Z,16.65
2024-01-10T14:38:16.276Z,16.86
2024-01-10T14:40:43.438Z,17.64
2024-01-10T14:43:10.490Z,17.48
2024-01-10T14:45:37.645Z,16.43
2024-01-10T14:48:05.528Z,16.47
2024-01-10T14:50:32.790Z,16.47
2024-01-10T14:52:59.975Z,16.60
2024-01-10T14:55:27.214Z,16.48
2024-01-10T14:57:54.295Z,16.36
2024-01-10T15:00:21.575Z,16.52
2024-01-10T15:02:49.792Z,16.50
2024-01-10T15:05:17.518Z,16.77
2024-01-10T15:07:44.595Z,16.30
2024-01-10T15:10:11.921Z,15.74
2024-01-10T15:12:39.093Z,16.44
2024-01-10T15:15:07.377Z,15.99
2024-01-10T15:17:35.001Z,16.55
2024-01-10T15:20:02.227Z,16.31
2024-01-10T15:22:30.552Z,15.69
2024-01-10T15:24:57.597Z,15.42
2024-01-10T15:27:24.690Z,15.41
2024-01-10T15:29:56.822Z,14.69
2024-01-10T15:32:34.999Z,14.44
2024-01-10T15:35:06.733Z,14.93
2024-01-10T15:37:34.412Z,14.69
2024-01-10T15:40:02.118Z,14.74
2024-01-10T15:42:30.012Z,15.06
2024-01-10T15:44:57.159Z,14.56
2024-01-10T15:47:25.101Z,15.68
2024-01-10T15:49:52.759Z,17.06
2024-01-10T15:52:28.521Z,20.35
2024-01-10T15:54:56.631Z,19.17
2024-01-10T15:57:27.085Z,17.03
2024-01-10T15:59:55.922Z,15.57
2024-01-10T16:02:23.380Z,15.29
2024-01-10T16:04:51.475Z,15.03
2024-01-10T16:07:21.806Z,14.55
2024-01-10T16:09:49.452Z,13.69
2024-01-10T16:12:19.106Z,14.72
2024-01-10T16:14:48.953Z,14.84
2024-01-10T16:17:19.212Z,13.49
2024-01-10T16:20:05.862Z,14.33
2024-01-10T16:22:37.577Z,14.59
2024-01-10T16:25:06.502Z,14.51
2024-01-10T16:27:33.575Z,16.11
2024-01-10T16:30:01.873Z,14.80
2024-01-10T16:32:30.789Z,14.14
2024-01-10T16:34:59.593Z,13.69
2024-01-10T16:37:26.773Z,13.54
2024-01-10T16:39:54.671Z,15.91
2024-01-10T16:42:21.935Z,13.52
2024-01-10T16:44:49.379Z,15.39
2024-01-10T16:47:16.792Z,15.52
2024-01-10T16:49:47.021Z,14.86
2024-01-10T16:52:14.445Z,14.29
2024-01-10T16:54:41.746Z,13.53
2024-01-10T16:57:09.826Z,13.85
2024-01-10T16:59:36.945Z,14.21
2024-01-10T17:02:04.161Z,13.89
2024-01-10T17:04:31.621Z,14.95
2024-01-10T17:06:58.685Z,17.90
2024-01-10T17:09:28.069Z,15.59
2024-01-10T17:11:55.137Z,14.85
2024-01-10T17:14:22.294Z,14.43
2024-01-10T17:16:49.653Z,14.78
2024-01-10T17:19:16.834Z,13.89
2024-01-10T17:21:44.183Z,13.13
2024-01-10T17:24:11.519Z,13.92
2024-01-10T17:26:38.703Z,13.56
2024-01-10T17:29:08.347Z,13.91
2024-01-10T17:31:35.460Z,13.16
2024-01-10T17:34:02.860Z,13.33
2024-01-10T17:36:38.029Z,12.84
2024-01-10T17:39:06.160Z,12.79
2024-01-10T17:41:33.861Z,16.61
2024-01-10T17:44:01.178Z,14.36
2024-01-10T17:46:28.301Z,14.32
2024-01-10T17:48:55.570Z,14.08
2024-01-10T17:51:23.280Z,12.89
2024-01-10T17:53:50.458Z,13.30
2024-01-10T17:56:17.734Z,13.58
2024-01-10T17:58:44.845Z,14.55
2024-01-10T18:01:12.379Z,13.22
2024-01-10T18:03:39.513Z,13.22
2024-01-10T18:06:07.155Z,12.45
2024-01-10T18:08:34.556Z,12.38
2024-01-10T18:11:01.830Z,13.53
2024-01-10T18:13:28.854Z,14.96
2024-01-10T18:15:55.961Z,16.18
2024-01-10T18:18:23.929Z,15.24
2024-01-10T18:20:51.303Z,15.12
2024-01-10T18:23:18.392Z,13.77
2024-01-10T18:25:48.140Z,14.59
2024-01-10T18:28:15.404Z,14.54
2024-01-10T18:30:42.471Z,14.11
2024-01-10T18:33:10.699Z,13.34
2024-01-10T18:35:38.307Z,14.33
2024-01-10T18:38:05.982Z,14.95
2024-01-10T18:40:33.109Z,14.54
2024-01-10T18:43:00.166Z,19.45
2024-01-10T18:45:27.196Z,17.09
2024-01-10T18:47:54.534Z,18.11
2024-01-10T18:50:21.730Z,15.29
2024-01-10T18:52:48.843Z,15.61
2024-01-10T18:55:15.913Z,17.16
2024-01-10T18:57:42.968Z,17.09
2024-01-10T19:00:13.408Z,18.05
2024-01-10T19:02:40.487Z,15.22
2024-01-10T19:05:08.070Z,16.23
2024-01-10T19:07:35.142Z,15.39
2024-01-10T19:10:02.879Z,15.63
2024-01-10T19:12:30.197Z,15.54
2024-01-10T19:14:57.253Z,15.44
2024-01-10T19:17:24.445Z,15.06
2024-01-10T19:19:51.645Z,14.18
2024-01-10T19:22:18.738Z,14.34
2024-01-10T19:24:45.818Z,14.66
2024-01-10T19:27:13.256Z,15.18
2024-01-10T19:29:40.509Z,14.90
2024-01-10T19:32:07.556Z,15.12
2024-01-10T19:34:34.696Z,15.17
2024-01-10T19:37:02.136Z,15.11
2024-01-10T19:39:29.260Z,14.74
2024-01-10T19:41:56.337Z,14.98
2024-01-10T19:44:23.447Z,15.46
2024-01-10T19:46:50.793Z,15.88
2024-01-10T19:49:18.109Z,16.74
2024-01-10T19:51:48.154Z,16.94
2024-01-10T19:54:16.164Z,17.05
2024-01-10T19:56:43.273Z,17.35
2024-01-10T19:59:10.339Z,17.29
2024-01-10T20:01:37.362Z,16.47
2024-01-10T20:04:04.620Z,16.16
2024-01-10T20:06:31.815Z,16.97
2024-01-10T20:08:58.952Z,16.68
2024-01-10T20:11:26.704Z,16.17
2024-01-10T20:13:53.879Z,17.41
2024-01-10T20:16:20.941Z,16.51
2024-01-10T20:18:48.126Z,16.40
2024-01-10T20:21:16.864Z,17.03
2024-01-10T20:23:48.497Z,16.98
2024-01-10T20:26:16.260Z,17.41
2024-01-10T20:28:43.337Z,17.27
2024-01-10T20:31:10.948Z,17.52
2024-01-10T20:33:38.347Z,17.61
2024-01-10T20:36:06.071Z,17.68
2024-01-10T20:38:33.256Z,17.24
2024-01-10T20:41:00.743Z,18.01
2024-01-10T20:43:28.222Z,17.45
2024-01-10T20:45:55.535Z,17.52
2024-01-10T20:48:22.618Z,18.44
2024-01-10T20:50:49.689Z,18.19
2024-01-10T20:53:17.244Z,17.72
2024-01-10T20:55:44.777Z,17.53
2024-01-10T20:58:12.388Z,17.87
2024-01-10T21:00:40.444Z,17.68
2024-01-10T21:03:07.859Z,17.45
2024-01-10T21:05:35.148Z,16.89
2024-01-10T21:08:02.313Z,17.96
2024-01-10T21:10:29.424Z,18.26
2024-01-10T21:12:56.536Z,18.71
2024-01-10T21:15:23.744Z,18.12
2024-01-10T21:17:51.046Z,19.07
2024-01-10T21:20:18.239Z,19.18
2024-01-10T21:22:45.283Z,18.97
2024-01-10T21:25:12.536Z,18.83
2024-01-10T21:27:41.708Z,19.45
2024-01-10T21:30:09.623Z,19.10
2024-01-10T21:32:36.943Z,19.28
2024-01-10T21:35:04.419Z,19.66
2024-01-10T21:37:31.599Z,19.11
2024-01-10T21:39:58.924Z,19.98
2024-01-10T21:42:27.055Z,19.52
2024-01-10T21:44:55.240Z,19.63
2024-01-10T21:47:22.390Z,19.98
2024-01-10T21:49:49.856Z,19.51
2024-01-10T21:52:17.005Z,19.47
2024-01-10T21:54:44.129Z,19.80
2024-01-10T21:57:11.133Z,19.50
2024-01-10T21:59:41.690Z,20.22
2024-01-10T22:02:08.894Z,19.49
2024-01-10T22:04:36.243Z,19.77
2024-01-10T22:07:03.617Z,19.79
2024-01-10T22:09:30.740Z,20.23
2024-01-10T22:11:57.768Z,20.81
2024-01-10T22:14:24.819Z,20.91
2024-01-10T22:16:52.012Z,20.36
2024-01-10T22:19:19.330Z,19.96
2024-01-10T22:21:46.571Z,20.45
2024-01-10T22:24:13.668Z,20.31
2024-01-10T22:26:40.738Z,19.82
2024-01-10T22:29:07.834Z,19.87
2024-01-10T22:31:34.981Z,20.48
2024-01-10T22:34:02.068Z,20.00
2024-01-10T22:36:29.207Z,19.97
2024-01-10T22:38:56.789Z,19.58
2024-01-10T22:41:23.923Z,19.65
2024-01-10T22:43:51.035Z,19.45
2024-01-10T22:46:18.500Z,19.72
2024-01-10T22:48:45.652Z,19.50
2024-01-10T22:51:12.922Z,19.45
2024-01-10T22:53:40.385Z,19.51
2024-01-10T22:56:07.725Z,20.12
2024-01-10T22:58:34.768Z,19.83
2024-01-10T23:01:02.249Z,20.11
2024-01-10T23:03:33.234Z,20.04
2024-01-10T23:06:01.930Z,20.23
2024-01-10T23:08:29.769Z,19.90
2024-01-10T23:10:58.691Z,20.29
2024-01-10T23:13:26.054Z,20.69
2024-01-10T23:15:53.491Z,20.25
2024-01-10T23:18:22.000Z,19.79
2024-01-10T23:20:49.757Z,20.21
2024-01-10T23:23:16.856Z,20.08
2024-01-10T23:25:44.047Z,20.14
2024-01-10T23:28:11.134Z,20.36
2024-01-10T23:30:38.239Z,21.62
2024-01-10T23:33:05.630Z,20.74
2024-01-10T23:35:40.677Z,20.49
2024-01-10T23:38:15.061Z,20.97
2024-01-10T23:40:42.235Z,20.57
2024-01-10T23:43:15.771Z,19.96
2024-01-10T23:45:52.366Z,20.94
2024-01-10T23:48:19.624Z,20.40
2024-01-10T23:50:46.761Z,20.20
2024-01-10T23:53:14.071Z,20.26
2024-01-10T23:55:41.202Z,19.95
2024-01-10T23:58:08.421Z,19.79
